sensor_id;sensor_type;location;lat;lon;timestamp;P1;durP1;ratioP1;P2;durP2;ratioP2
16478;SDS011;8350;52.316;10.530;2023-06-19T00:00:07;5.18;;;4.72;;
16478;SDS011;8350;52.316;10.530;2023-06-19T00:02:38;6.00;;;5.50;;
16478;SDS011;8350;52.316;10.530;2023-06-19T00:05:05;4.97;;;4.57;;
16478;SDS011;8350;52.316;10.530;2023-06-19T00:07:37;5.20;;;4.80;;
16478;SDS011;8350;52.316;10.530;2023-06-19T00:10:11;5.72;;;5.32;;
16478;SDS011;8350;52.316;10.530;2023-06-19T00:12:38;5.65;;;5.15;;
16478;SDS011;8350;52.316;10.530;2023-06-19T00:15:05;5.32;;;4.93;;
16478;SDS011;8350;52.316;10.530;2023-06-19T00:17:34;4.93;;;4.53;;
16478;SDS011;8350;52.316;10.530;2023-06-19T00:20:02;5.53;;;4.95;;
16478;SDS011;8350;52.316;10.530;2023-06-19T00:22:30;5.20;;;4.80;;
16478;SDS011;8350;52.316;10.530;2023-06-19T00:24:58;5.38;;;4.97;;
16478;SDS011;8350;52.316;10.530;2023-06-19T00:27:28;5.53;;;5.03;;
16478;SDS011;8350;52.316;10.530;2023-06-19T00:29:57;5.55;;;5.07;;
16478;SDS011;8350;52.316;10.530;2023-06-19T00:32:27;5.68;;;5.28;;
16478;SDS011;8350;52.316;10.530;2023-06-19T00:34:54;5.28;;;4.78;;
16478;SDS011;8350;52.316;10.530;2023-06-19T00:37:21;6.80;;;5.10;;
16478;SDS011;8350;52.316;10.530;2023-06-19T00:39:48;5.95;;;5.40;;
16478;SDS011;8350;52.316;10.530;2023-06-19T00:42:16;5.15;;;4.75;;
16478;SDS011;8350;52.316;10.530;2023-06-19T00:44:43;5.63;;;5.22;;
16478;SDS011;8350;52.316;10.530;2023-06-19T00:47:09;6.50;;;4.65;;
16478;SDS011;8350;52.316;10.530;2023-06-19T00:49:37;5.93;;;5.47;;
16478;SDS011;8350;52.316;10.530;2023-06-19T00:52:04;5.20;;;4.80;;
16478;SDS011;8350;52.316;10.530;2023-06-19T00:54:32;5.90;;;5.50;;
16478;SDS011;8350;52.316;10.530;2023-06-19T00:56:59;5.75;;;5.25;;
16478;SDS011;8350;52.316;10.530;2023-06-19T00:59:27;5.20;;;4.70;;
16478;SDS011;8350;52.316;10.530;2023-06-19T01:01:55;6.05;;;5.45;;
16478;SDS011;8350;52.316;10.530;2023-06-19T01:04:22;5.13;;;4.82;;
16478;SDS011;8350;52.316;10.530;2023-06-19T01:06:54;6.25;;;5.20;;
16478;SDS011;8350;52.316;10.530;2023-06-19T01:09:25;5.03;;;4.63;;
16478;SDS011;8350;52.316;10.530;2023-06-19T01:11:57;5.53;;;5.13;;
16478;SDS011;8350;52.316;10.530;2023-06-19T01:14:33;5.78;;;5.38;;
16478;SDS011;8350;52.316;10.530;2023-06-19T01:17:05;5.50;;;4.90;;
16478;SDS011;8350;52.316;10.530;2023-06-19T01:19:32;4.95;;;4.43;;
16478;SDS011;8350;52.316;10.530;2023-06-19T01:22:02;5.88;;;5.35;;
16478;SDS011;8350;52.316;10.530;2023-06-19T01:24:30;5.32;;;4.82;;
16478;SDS011;8350;52.316;10.530;2023-06-19T01:26:57;4.97;;;4.57;;
16478;SDS011;8350;52.316;10.530;2023-06-19T01:29:23;4.97;;;4.60;;
16478;SDS011;8350;52.316;10.530;2023-06-19T01:31:52;5.00;;;4.55;;
16478;SDS011;8350;52.316;10.530;2023-06-19T01:34:22;6.55;;;5.05;;
16478;SDS011;8350;52.316;10.530;2023-06-19T01:36:52;5.25;;;4.85;;
16478;SDS011;8350;52.316;10.530;2023-06-19T01:39:23;5.03;;;4.63;;
16478;SDS011;8350;52.316;10.530;2023-06-19T01:41:51;4.85;;;4.45;;
16478;SDS011;8350;52.316;10.530;2023-06-19T01:44:20;5.72;;;5.13;;
16478;SDS011;8350;52.316;10.530;2023-06-19T01:46:50;5.20;;;4.70;;
16478;SDS011;8350;52.316;10.530;2023-06-19T01:49:17;5.70;;;5.18;;
16478;SDS011;8350;52.316;10.530;2023-06-19T01:51:53;5.05;;;4.65;;
16478;SDS011;8350;52.316;10.530;2023-06-19T01:54:20;6.70;;;5.18;;
16478;SDS011;8350;52.316;10.530;2023-06-19T01:56:49;5.38;;;4.97;;
16478;SDS011;8350;52.316;10.530;2023-06-19T01:59:15;5.28;;;4.78;;
16478;SDS011;8350;52.316;10.530;2023-06-19T02:01:43;5.15;;;4.75;;
16478;SDS011;8350;52.316;10.530;2023-06-19T02:04:10;5.60;;;5.05;;
16478;SDS011;8350;52.316;10.530;2023-06-19T02:06:36;5.00;;;4.53;;
16478;SDS011;8350;52.316;10.530;2023-06-19T02:09:03;5.18;;;4.80;;
16478;SDS011;8350;52.316;10.530;2023-06-19T02:11:30;5.68;;;5.20;;
16478;SDS011;8350;52.316;10.530;2023-06-19T02:13:58;5.30;;;4.80;;
16478;SDS011;8350;52.316;10.530;2023-06-19T02:16:25;5.18;;;4.80;;
16478;SDS011;8350;52.316;10.530;2023-06-19T02:18:52;5.15;;;4.75;;
16478;SDS011;8350;52.316;10.530;2023-06-19T02:21:19;5.38;;;4.95;;
16478;SDS011;8350;52.316;10.530;2023-06-19T02:23:45;4.78;;;4.38;;
16478;SDS011;8350;52.316;10.530;2023-06-19T02:26:12;5.20;;;4.78;;
16478;SDS011;8350;52.316;10.530;2023-06-19T02:28:39;5.20;;;4.75;;
16478;SDS011;8350;52.316;10.530;2023-06-19T02:31:07;5.43;;;4.97;;
16478;SDS011;8350;52.316;10.530;2023-06-19T02:33:34;5.00;;;4.60;;
16478;SDS011;8350;52.316;10.530;2023-06-19T02:36:00;4.70;;;4.40;;
16478;SDS011;8350;52.316;10.530;2023-06-19T02:38:28;5.40;;;5.00;;
16478;SDS011;8350;52.316;10.530;2023-06-19T02:40:55;4.68;;;4.28;;
16478;SDS011;8350;52.316;10.530;2023-06-19T02:43:25;5.18;;;4.78;;
16478;SDS011;8350;52.316;10.530;2023-06-19T02:45:52;5.43;;;5.03;;
16478;SDS011;8350;52.316;10.530;2023-06-19T02:48:20;5.05;;;4.55;;
16478;SDS011;8350;52.316;10.530;2023-06-19T02:50:48;5.47;;;5.07;;
16478;SDS011;8350;52.316;10.530;2023-06-19T02:53:15;5.40;;;5.00;;
16478;SDS011;8350;52.316;10.530;2023-06-19T02:55:42;4.95;;;4.55;;
16478;SDS011;8350;52.316;10.530;2023-06-19T02:58:08;5.68;;;5.18;;
16478;SDS011;8350;52.316;10.530;2023-06-19T03:00:35;5.78;;;5.30;;
16478;SDS011;8350;52.316;10.530;2023-06-19T03:03:02;5.20;;;4.80;;
16478;SDS011;8350;52.316;10.530;2023-06-19T03:05:30;5.85;;;5.30;;
16478;SDS011;8350;52.316;10.530;2023-06-19T03:07:57;5.43;;;4.93;;
16478;SDS011;8350;52.316;10.530;2023-06-19T03:10:24;5.43;;;4.85;;
16478;SDS011;8350;52.316;10.530;2023-06-19T03:12:51;5.93;;;5.43;;
16478;SDS011;8350;52.316;10.530;2023-06-19T03:15:26;5.65;;;5.15;;
16478;SDS011;8350;52.316;10.530;2023-06-19T03:17:53;5.85;;;5.07;;
16478;SDS011;8350;52.316;10.530;2023-06-19T03:20:20;5.93;;;5.47;;
16478;SDS011;8350;52.316;10.530;2023-06-19T03:22:48;5.43;;;5.00;;
16478;SDS011;8350;52.316;10.530;2023-06-19T03:25:15;5.82;;;5.32;;
16478;SDS011;8350;52.316;10.530;2023-06-19T03:27:45;5.78;;;5.22;;
16478;SDS011;8350;52.316;10.530;2023-06-19T03:30:12;5.38;;;4.97;;
16478;SDS011;8350;52.316;10.530;2023-06-19T03:32:39;5.05;;;4.75;;
16478;SDS011;8350;52.316;10.530;2023-06-19T03:35:08;5.95;;;5.40;;
16478;SDS011;8350;52.316;10.530;2023-06-19T03:37:36;5.85;;;5.35;;
16478;SDS011;8350;52.316;10.530;2023-06-19T03:40:05;5.65;;;5.13;;
16478;SDS011;8350;52.316;10.530;2023-06-19T03:42:33;6.30;;;5.80;;
16478;SDS011;8350;52.316;10.530;2023-06-19T03:45:00;6.03;;;5.53;;
16478;SDS011;8350;52.316;10.530;2023-06-19T03:47:27;6.50;;;5.90;;
16478;SDS011;8350;52.316;10.530;2023-06-19T03:49:54;5.75;;;5.25;;
16478;SDS011;8350;52.316;10.530;2023-06-19T03:52:20;6.63;;;5.53;;
16478;SDS011;8350;52.316;10.530;2023-06-19T03:54:47;5.97;;;5.50;;
16478;SDS011;8350;52.316;10.530;2023-06-19T03:57:16;5.40;;;5.00;;
16478;SDS011;8350;52.316;10.530;2023-06-19T03:59:45;6.43;;;5.90;;
16478;SDS011;8350;52.316;10.530;2023-06-19T04:02:12;6.00;;;5.45;;
16478;SDS011;8350;52.316;10.530;2023-06-19T04:04:39;5.60;;;5.10;;
16478;SDS011;8350;52.316;10.530;2023-06-19T04:07:05;6.45;;;5.45;;
16478;SDS011;8350;52.316;10.530;2023-06-19T04:09:32;5.65;;;5.20;;
16478;SDS011;8350;52.316;10.530;2023-06-19T04:11:59;5.90;;;5.40;;
16478;SDS011;8350;52.316;10.530;2023-06-19T04:14:27;5.35;;;4.95;;
16478;SDS011;8350;52.316;10.530;2023-06-19T04:16:54;6.28;;;5.75;;
16478;SDS011;8350;52.316;10.530;2023-06-19T04:19:20;5.97;;;5.47;;
16478;SDS011;8350;52.316;10.530;2023-06-19T04:21:52;5.68;;;5.28;;
16478;SDS011;8350;52.316;10.530;2023-06-19T04:24:21;6.15;;;5.53;;
16478;SDS011;8350;52.316;10.530;2023-06-19T04:27:06;5.97;;;5.38;;
16478;SDS011;8350;52.316;10.530;2023-06-19T04:29:35;5.60;;;5.20;;
16478;SDS011;8350;52.316;10.530;2023-06-19T04:32:01;6.13;;;5.53;;
16478;SDS011;8350;52.316;10.530;2023-06-19T04:34:36;6.85;;;6.25;;
16478;SDS011;8350;52.316;10.530;2023-06-19T04:37:04;6.00;;;5.50;;
16478;SDS011;8350;52.316;10.530;2023-06-19T04:39:31;6.88;;;6.18;;
16478;SDS011;8350;52.316;10.530;2023-06-19T04:41:58;6.22;;;5.68;;
16478;SDS011;8350;52.316;10.530;2023-06-19T04:44:25;6.60;;;5.90;;
16478;SDS011;8350;52.316;10.530;2023-06-19T04:46:53;6.40;;;5.78;;
16478;SDS011;8350;52.316;10.530;2023-06-19T04:49:25;6.10;;;5.53;;
16478;SDS011;8350;52.316;10.530;2023-06-19T04:51:54;6.13;;;5.55;;
16478;SDS011;8350;52.316;10.530;2023-06-19T04:54:21;6.35;;;5.65;;
16478;SDS011;8350;52.316;10.530;2023-06-19T04:56:48;6.05;;;5.55;;
16478;SDS011;8350;52.316;10.530;2023-06-19T04:59:15;5.82;;;5.32;;
16478;SDS011;8350;52.316;10.530;2023-06-19T05:01:43;6.20;;;5.70;;
16478;SDS011;8350;52.316;10.530;2023-06-19T05:04:11;6.13;;;5.57;;
16478;SDS011;8350;52.316;10.530;2023-06-19T05:06:41;6.22;;;5.72;;
16478;SDS011;8350;52.316;10.530;2023-06-19T05:09:07;5.60;;;5.10;;
16478;SDS011;8350;52.316;10.530;2023-06-19T05:11:34;6.13;;;5.63;;
16478;SDS011;8350;52.316;10.530;2023-06-19T05:14:01;6.70;;;6.10;;
16478;SDS011;8350;52.316;10.530;2023-06-19T05:16:28;5.88;;;5.38;;
16478;SDS011;8350;52.316;10.530;2023-06-19T05:18:55;6.50;;;5.90;;
16478;SDS011;8350;52.316;10.530;2023-06-19T05:21:23;6.20;;;5.60;;
16478;SDS011;8350;52.316;10.530;2023-06-19T05:23:50;5.93;;;5.43;;
16478;SDS011;8350;52.316;10.530;2023-06-19T05:26:18;7.28;;;6.60;;
16478;SDS011;8350;52.316;10.530;2023-06-19T05:28:45;6.18;;;5.68;;
16478;SDS011;8350;52.316;10.530;2023-06-19T05:31:14;6.13;;;5.63;;
16478;SDS011;8350;52.316;10.530;2023-06-19T05:33:41;7.47;;;6.15;;
16478;SDS011;8350;52.316;10.530;2023-06-19T05:36:07;7.13;;;6.43;;
16478;SDS011;8350;52.316;10.530;2023-06-19T05:38:36;6.82;;;6.20;;
16478;SDS011;8350;52.316;10.530;2023-06-19T05:41:03;6.75;;;6.15;;
16478;SDS011;8350;52.316;10.530;2023-06-19T05:43:31;6.43;;;5.82;;
16478;SDS011;8350;52.316;10.530;2023-06-19T05:45:58;6.43;;;5.82;;
16478;SDS011;8350;52.316;10.530;2023-06-19T05:48:25;6.03;;;5.47;;
16478;SDS011;8350;52.316;10.530;2023-06-19T05:50:53;6.38;;;5.80;;
16478;SDS011;8350;52.316;10.530;2023-06-19T05:53:19;6.55;;;5.95;;
16478;SDS011;8350;52.316;10.530;2023-06-19T05:55:48;6.72;;;6.07;;
16478;SDS011;8350;52.316;10.530;2023-06-19T05:58:14;6.55;;;5.93;;
16478;SDS011;8350;52.316;10.530;2023-06-19T06:00:44;5.95;;;5.53;;
16478;SDS011;8350;52.316;10.530;2023-06-19T06:03:13;5.95;;;5.30;;
16478;SDS011;8350;52.316;10.530;2023-06-19T06:05:40;8.70;;;5.75;;
16478;SDS011;8350;52.316;10.530;2023-06-19T06:08:08;7.05;;;6.20;;
16478;SDS011;8350;52.316;10.530;2023-06-19T06:10:35;8.48;;;5.97;;
16478;SDS011;8350;52.316;10.530;2023-06-19T06:13:04;8.05;;;6.03;;
16478;SDS011;8350;52.316;10.530;2023-06-19T06:15:30;8.50;;;5.80;;
16478;SDS011;8350;52.316;10.530;2023-06-19T06:17:57;6.32;;;5.82;;
16478;SDS011;8350;52.316;10.530;2023-06-19T06:20:24;6.60;;;5.85;;
16478;SDS011;8350;52.316;10.530;2023-06-19T06:22:52;7.22;;;6.63;;
16478;SDS011;8350;52.316;10.530;2023-06-19T06:25:19;6.90;;;6.40;;
16478;SDS011;8350;52.316;10.530;2023-06-19T06:27:46;7.43;;;6.50;;
16478;SDS011;8350;52.316;10.530;2023-06-19T06:30:14;6.43;;;5.93;;
16478;SDS011;8350;52.316;10.530;2023-06-19T06:32:42;6.45;;;5.85;;
16478;SDS011;8350;52.316;10.530;2023-06-19T06:35:09;6.72;;;6.20;;
16478;SDS011;8350;52.316;10.530;2023-06-19T06:37:35;7.13;;;6.53;;
16478;SDS011;8350;52.316;10.530;2023-06-19T06:40:03;7.43;;;6.68;;
16478;SDS011;8350;52.316;10.530;2023-06-19T06:42:33;6.95;;;6.35;;
16478;SDS011;8350;52.316;10.530;2023-06-19T06:45:00;6.65;;;6.05;;
16478;SDS011;8350;52.316;10.530;2023-06-19T06:47:28;6.65;;;6.00;;
16478;SDS011;8350;52.316;10.530;2023-06-19T06:49:55;6.20;;;5.60;;
16478;SDS011;8350;52.316;10.530;2023-06-19T06:52:22;6.53;;;6.03;;
16478;SDS011;8350;52.316;10.530;2023-06-19T06:54:49;6.47;;;5.88;;
16478;SDS011;8350;52.316;10.530;2023-06-19T06:57:16;8.52;;;6.38;;
16478;SDS011;8350;52.316;10.530;2023-06-19T06:59:43;6.95;;;6.35;;
16478;SDS011;8350;52.316;10.530;2023-06-19T07:02:10;7.13;;;6.53;;
16478;SDS011;8350;52.316;10.530;2023-06-19T07:04:41;7.40;;;6.80;;
16478;SDS011;8350;52.316;10.530;2023-06-19T07:07:08;7.70;;;6.50;;
16478;SDS011;8350;52.316;10.530;2023-06-19T07:09:35;8.93;;;7.63;;
16478;SDS011;8350;52.316;10.530;2023-06-19T07:12:02;7.00;;;6.30;;
16478;SDS011;8350;52.316;10.530;2023-06-19T07:14:30;7.68;;;6.97;;
16478;SDS011;8350;52.316;10.530;2023-06-19T07:16:58;7.32;;;6.55;;
16478;SDS011;8350;52.316;10.530;2023-06-19T07:19:24;6.88;;;6.28;;
16478;SDS011;8350;52.316;10.530;2023-06-19T07:21:53;7.13;;;6.50;;
16478;SDS011;8350;52.316;10.530;2023-06-19T07:24:19;7.00;;;6.50;;
16478;SDS011;8350;52.316;10.530;2023-06-19T07:26:50;7.13;;;6.53;;
16478;SDS011;8350;52.316;10.530;2023-06-19T07:29:16;6.90;;;6.28;;
16478;SDS011;8350;52.316;10.530;2023-06-19T07:31:43;8.05;;;7.25;;
16478;SDS011;8350;52.316;10.530;2023-06-19T07:34:10;11.48;;;6.95;;
16478;SDS011;8350;52.316;10.530;2023-06-19T07:36:37;10.15;;;7.05;;
16478;SDS011;8350;52.316;10.530;2023-06-19T07:39:05;6.65;;;6.15;;
16478;SDS011;8350;52.316;10.530;2023-06-19T07:41:32;8.15;;;6.63;;
16478;SDS011;8350;52.316;10.530;2023-06-19T07:43:59;7.00;;;6.40;;
16478;SDS011;8350;52.316;10.530;2023-06-19T07:46:26;6.75;;;6.25;;
16478;SDS011;8350;52.316;10.530;2023-06-19T07:48:52;7.60;;;6.88;;
16478;SDS011;8350;52.316;10.530;2023-06-19T07:51:20;7.18;;;6.57;;
16478;SDS011;8350;52.316;10.530;2023-06-19T07:53:46;7.60;;;6.93;;
16478;SDS011;8350;52.316;10.530;2023-06-19T07:56:15;9.32;;;6.95;;
16478;SDS011;8350;52.316;10.530;2023-06-19T07:58:41;6.10;;;5.60;;
16478;SDS011;8350;52.316;10.530;2023-06-19T08:01:08;6.90;;;6.30;;
16478;SDS011;8350;52.316;10.530;2023-06-19T08:03:35;8.00;;;7.25;;
16478;SDS011;8350;52.316;10.530;2023-06-19T08:06:02;7.85;;;7.05;;
16478;SDS011;8350;52.316;10.530;2023-06-19T08:08:29;9.00;;;6.45;;
16478;SDS011;8350;52.316;10.530;2023-06-19T08:10:56;7.10;;;6.50;;
16478;SDS011;8350;52.316;10.530;2023-06-19T08:13:24;6.95;;;6.45;;
16478;SDS011;8350;52.316;10.530;2023-06-19T08:15:50;6.95;;;6.35;;
16478;SDS011;8350;52.316;10.530;2023-06-19T08:18:17;6.97;;;6.40;;
16478;SDS011;8350;52.316;10.530;2023-06-19T08:20:44;7.32;;;6.72;;
16478;SDS011;8350;52.316;10.530;2023-06-19T08:23:11;7.38;;;6.68;;
16478;SDS011;8350;52.316;10.530;2023-06-19T08:25:38;7.30;;;6.68;;
16478;SDS011;8350;52.316;10.530;2023-06-19T08:28:04;7.40;;;6.70;;
16478;SDS011;8350;52.316;10.530;2023-06-19T08:30:33;7.00;;;6.30;;
16478;SDS011;8350;52.316;10.530;2023-06-19T08:33:01;8.10;;;6.65;;
16478;SDS011;8350;52.316;10.530;2023-06-19T08:35:28;7.25;;;6.55;;
16478;SDS011;8350;52.316;10.530;2023-06-19T08:37:55;6.97;;;6.47;;
16478;SDS011;8350;52.316;10.530;2023-06-19T08:40:24;6.70;;;6.20;;
16478;SDS011;8350;52.316;10.530;2023-06-19T08:42:51;7.50;;;6.88;;
16478;SDS011;8350;52.316;10.530;2023-06-19T08:45:18;8.00;;;7.30;;
16478;SDS011;8350;52.316;10.530;2023-06-19T08:47:48;7.10;;;6.50;;
16478;SDS011;8350;52.316;10.530;2023-06-19T08:50:15;7.63;;;7.00;;
16478;SDS011;8350;52.316;10.530;2023-06-19T08:52:42;8.02;;;6.95;;
16478;SDS011;8350;52.316;10.530;2023-06-19T08:55:09;7.90;;;6.47;;
16478;SDS011;8350;52.316;10.530;2023-06-19T08:57:35;6.97;;;6.47;;
16478;SDS011;8350;52.316;10.530;2023-06-19T09:00:04;6.50;;;6.00;;
16478;SDS011;8350;52.316;10.530;2023-06-19T09:02:36;7.15;;;6.60;;
16478;SDS011;8350;52.316;10.530;2023-06-19T09:05:13;7.22;;;6.53;;
16478;SDS011;8350;52.316;10.530;2023-06-19T09:07:41;7.30;;;6.70;;
16478;SDS011;8350;52.316;10.530;2023-06-19T09:10:15;7.60;;;6.90;;
16478;SDS011;8350;52.316;10.530;2023-06-19T09:12:43;6.65;;;6.05;;
16478;SDS011;8350;52.316;10.530;2023-06-19T09:15:13;7.05;;;6.40;;
16478;SDS011;8350;52.316;10.530;2023-06-19T09:17:41;7.40;;;6.70;;
16478;SDS011;8350;52.316;10.530;2023-06-19T09:20:08;7.50;;;6.88;;
16478;SDS011;8350;52.316;10.530;2023-06-19T09:22:38;7.05;;;6.45;;
16478;SDS011;8350;52.316;10.530;2023-06-19T09:25:06;7.72;;;7.10;;
16478;SDS011;8350;52.316;10.530;2023-06-19T09:27:35;7.50;;;6.80;;
16478;SDS011;8350;52.316;10.530;2023-06-19T09:30:02;7.95;;;7.25;;
16478;SDS011;8350;52.316;10.530;2023-06-19T09:32:31;8.52;;;7.32;;
16478;SDS011;8350;52.316;10.530;2023-06-19T09:34:58;8.95;;;7.18;;
16478;SDS011;8350;52.316;10.530;2023-06-19T09:37:25;7.13;;;6.63;;
16478;SDS011;8350;52.316;10.530;2023-06-19T09:39:55;7.65;;;7.05;;
16478;SDS011;8350;52.316;10.530;2023-06-19T09:42:24;7.10;;;6.50;;
16478;SDS011;8350;52.316;10.530;2023-06-19T09:44:54;7.90;;;7.13;;
16478;SDS011;8350;52.316;10.530;2023-06-19T09:47:25;7.00;;;6.43;;
16478;SDS011;8350;52.316;10.530;2023-06-19T09:49:56;7.45;;;6.75;;
16478;SDS011;8350;52.316;10.530;2023-06-19T09:52:23;7.75;;;7.05;;
16478;SDS011;8350;52.316;10.530;2023-06-19T09:54:50;6.78;;;6.28;;
16478;SDS011;8350;52.316;10.530;2023-06-19T09:57:20;6.45;;;5.85;;
16478;SDS011;8350;52.316;10.530;2023-06-19T09:59:48;7.07;;;6.47;;
16478;SDS011;8350;52.316;10.530;2023-06-19T10:02:19;6.78;;;6.28;;
16478;SDS011;8350;52.316;10.530;2023-06-19T10:04:50;7.18;;;6.50;;
16478;SDS011;8350;52.316;10.530;2023-06-19T10:07:20;7.22;;;6.53;;
16478;SDS011;8350;52.316;10.530;2023-06-19T10:09:57;7.40;;;6.82;;
16478;SDS011;8350;52.316;10.530;2023-06-19T10:12:40;7.03;;;6.43;;
16478;SDS011;8350;52.316;10.530;2023-06-19T10:15:09;6.75;;;6.15;;
16478;SDS011;8350;52.316;10.530;2023-06-19T10:17:48;7.07;;;6.47;;
16478;SDS011;8350;52.316;10.530;2023-06-19T10:20:20;8.18;;;6.55;;
16478;SDS011;8350;52.316;10.530;2023-06-19T10:22:52;7.28;;;6.78;;
16478;SDS011;8350;52.316;10.530;2023-06-19T10:25:23;7.25;;;6.53;;
16478;SDS011;8350;52.316;10.530;2023-06-19T10:27:55;7.25;;;6.55;;
16478;SDS011;8350;52.316;10.530;2023-06-19T10:30:22;7.82;;;6.80;;
16478;SDS011;8350;52.316;10.530;2023-06-19T10:32:49;7.28;;;6.68;;
16478;SDS011;8350;52.316;10.530;2023-06-19T10:35:16;7.60;;;6.90;;
16478;SDS011;8350;52.316;10.530;2023-06-19T10:37:46;7.20;;;6.70;;
16478;SDS011;8350;52.316;10.530;2023-06-19T10:40:14;7.38;;;6.78;;
16478;SDS011;8350;52.316;10.530;2023-06-19T10:42:40;7.38;;;6.68;;
16478;SDS011;8350;52.316;10.530;2023-06-19T10:45:09;7.72;;;7.13;;
16478;SDS011;8350;52.316;10.530;2023-06-19T10:47:38;7.28;;;6.57;;
16478;SDS011;8350;52.316;10.530;2023-06-19T10:50:09;6.72;;;6.22;;
16478;SDS011;8350;52.316;10.530;2023-06-19T10:52:39;7.00;;;6.40;;
16478;SDS011;8350;52.316;10.530;2023-06-19T10:55:07;7.00;;;6.50;;
16478;SDS011;8350;52.316;10.530;2023-06-19T10:57:35;6.65;;;6.15;;
16478;SDS011;8350;52.316;10.530;2023-06-19T11:00:05;7.05;;;6.53;;
16478;SDS011;8350;52.316;10.530;2023-06-19T11:02:39;6.22;;;5.63;;
16478;SDS011;8350;52.316;10.530;2023-06-19T11:05:09;6.45;;;5.95;;
16478;SDS011;8350;52.316;10.530;2023-06-19T11:07:37;6.68;;;6.18;;
16478;SDS011;8350;52.316;10.530;2023-06-19T11:10:04;5.95;;;5.55;;
16478;SDS011;8350;52.316;10.530;2023-06-19T11:12:38;6.07;;;5.43;;
16478;SDS011;8350;52.316;10.530;2023-06-19T11:15:05;6.45;;;5.97;;
16478;SDS011;8350;52.316;10.530;2023-06-19T11:17:32;6.13;;;5.72;;
16478;SDS011;8350;52.316;10.530;2023-06-19T11:20:02;7.15;;;6.40;;
16478;SDS011;8350;52.316;10.530;2023-06-19T11:22:37;7.55;;;5.90;;
16478;SDS011;8350;52.316;10.530;2023-06-19T11:25:06;7.22;;;6.68;;
16478;SDS011;8350;52.316;10.530;2023-06-19T11:27:34;5.97;;;5.57;;
16478;SDS011;8350;52.316;10.530;2023-06-19T11:30:10;6.85;;;6.35;;
16478;SDS011;8350;52.316;10.530;2023-06-19T11:32:46;6.65;;;6.15;;
16478;SDS011;8350;52.316;10.530;2023-06-19T11:35:15;6.35;;;5.88;;
16478;SDS011;8350;52.316;10.530;2023-06-19T11:37:42;6.82;;;6.32;;
16478;SDS011;8350;52.316;10.530;2023-06-19T11:40:10;6.07;;;5.57;;
16478;SDS011;8350;52.316;10.530;2023-06-19T11:42:51;6.30;;;5.80;;
16478;SDS011;8350;52.316;10.530;2023-06-19T11:45:19;7.20;;;6.53;;
16478;SDS011;8350;52.316;10.530;2023-06-19T11:47:46;6.53;;;6.03;;
16478;SDS011;8350;52.316;10.530;2023-06-19T11:50:16;6.55;;;5.95;;
16478;SDS011;8350;52.316;10.530;2023-06-19T11:52:44;6.75;;;6.22;;
16478;SDS011;8350;52.316;10.530;2023-06-19T11:55:11;6.75;;;6.20;;
16478;SDS011;8350;52.316;10.530;2023-06-19T11:57:38;7.07;;;6.47;;
16478;SDS011;8350;52.316;10.530;2023-06-19T12:00:12;6.68;;;6.15;;
16478;SDS011;8350;52.316;10.530;2023-06-19T12:02:41;6.90;;;6.25;;
16478;SDS011;8350;52.316;10.530;2023-06-19T12:05:08;7.00;;;6.30;;
16478;SDS011;8350;52.316;10.530;2023-06-19T12:07:37;6.95;;;6.45;;
16478;SDS011;8350;52.316;10.530;2023-06-19T12:10:04;6.72;;;6.22;;
16478;SDS011;8350;52.316;10.530;2023-06-19T12:12:35;7.07;;;6.47;;
16478;SDS011;8350;52.316;10.530;2023-06-19T12:15:03;6.82;;;6.32;;
16478;SDS011;8350;52.316;10.530;2023-06-19T12:17:32;6.35;;;5.88;;
16478;SDS011;8350;52.316;10.530;2023-06-19T12:19:59;6.63;;;5.97;;
16478;SDS011;8350;52.316;10.530;2023-06-19T12:22:26;7.22;;;6.43;;
16478;SDS011;8350;52.316;10.530;2023-06-19T12:24:54;6.05;;;5.60;;
16478;SDS011;8350;52.316;10.530;2023-06-19T12:27:21;6.38;;;5.78;;
16478;SDS011;8350;52.316;10.530;2023-06-19T12:29:52;6.00;;;5.60;;
16478;SDS011;8350;52.316;10.530;2023-06-19T12:32:20;6.75;;;5.68;;
16478;SDS011;8350;52.316;10.530;2023-06-19T12:34:48;6.40;;;5.90;;
16478;SDS011;8350;52.316;10.530;2023-06-19T12:37:19;6.32;;;5.82;;
16478;SDS011;8350;52.316;10.530;2023-06-19T12:39:46;6.45;;;5.90;;
16478;SDS011;8350;52.316;10.530;2023-06-19T12:42:14;6.10;;;5.57;;
16478;SDS011;8350;52.316;10.530;2023-06-19T12:44:41;5.85;;;5.45;;
16478;SDS011;8350;52.316;10.530;2023-06-19T12:47:10;6.05;;;5.57;;
16478;SDS011;8350;52.316;10.530;2023-06-19T12:49:37;6.18;;;5.68;;
16478;SDS011;8350;52.316;10.530;2023-06-19T12:52:05;6.75;;;6.18;;
16478;SDS011;8350;52.316;10.530;2023-06-19T12:54:32;6.35;;;5.78;;
16478;SDS011;8350;52.316;10.530;2023-06-19T12:57:00;8.95;;;6.35;;
16478;SDS011;8350;52.316;10.530;2023-06-19T12:59:28;7.05;;;6.55;;
16478;SDS011;8350;52.316;10.530;2023-06-19T13:01:58;6.22;;;5.72;;
16478;SDS011;8350;52.316;10.530;2023-06-19T13:04:25;6.60;;;6.10;;
16478;SDS011;8350;52.316;10.530;2023-06-19T13:06:52;6.43;;;5.88;;
16478;SDS011;8350;52.316;10.530;2023-06-19T13:09:19;6.45;;;5.95;;
16478;SDS011;8350;52.316;10.530;2023-06-19T13:11:46;6.50;;;6.00;;
16478;SDS011;8350;52.316;10.530;2023-06-19T13:14:14;6.47;;;5.88;;
16478;SDS011;8350;52.316;10.530;2023-06-19T13:16:43;6.35;;;5.80;;
16478;SDS011;8350;52.316;10.530;2023-06-19T13:19:09;6.20;;;5.80;;
16478;SDS011;8350;52.316;10.530;2023-06-19T13:21:36;6.28;;;5.78;;
16478;SDS011;8350;52.316;10.530;2023-06-19T13:24:06;5.43;;;5.03;;
16478;SDS011;8350;52.316;10.530;2023-06-19T13:26:33;5.65;;;5.25;;
16478;SDS011;8350;52.316;10.530;2023-06-19T13:29:00;5.32;;;4.93;;
16478;SDS011;8350;52.316;10.530;2023-06-19T13:31:27;5.85;;;5.45;;
16478;SDS011;8350;52.316;10.530;2023-06-19T13:33:56;6.07;;;5.57;;
16478;SDS011;8350;52.316;10.530;2023-06-19T13:36:23;5.60;;;5.10;;
16478;SDS011;8350;52.316;10.530;2023-06-19T13:38:52;5.30;;;4.90;;
16478;SDS011;8350;52.316;10.530;2023-06-19T13:41:19;5.10;;;4.70;;
16478;SDS011;8350;52.316;10.530;2023-06-19T13:43:48;5.75;;;5.15;;
16478;SDS011;8350;52.316;10.530;2023-06-19T13:46:15;5.22;;;4.82;;
16478;SDS011;8350;52.316;10.530;2023-06-19T13:48:42;5.05;;;4.55;;
16478;SDS011;8350;52.316;10.530;2023-06-19T13:51:10;5.20;;;4.75;;
16478;SDS011;8350;52.316;10.530;2023-06-19T13:53:37;5.53;;;5.03;;
16478;SDS011;8350;52.316;10.530;2023-06-19T13:56:04;5.43;;;4.93;;
16478;SDS011;8350;52.316;10.530;2023-06-19T13:58:32;5.35;;;4.95;;
16478;SDS011;8350;52.316;10.530;2023-06-19T14:00:59;4.95;;;4.55;;
16478;SDS011;8350;52.316;10.530;2023-06-19T14:03:25;5.28;;;4.78;;
16478;SDS011;8350;52.316;10.530;2023-06-19T14:05:52;4.80;;;4.32;;
16478;SDS011;8350;52.316;10.530;2023-06-19T14:08:21;4.15;;;3.85;;
16478;SDS011;8350;52.316;10.530;2023-06-19T14:10:49;6.10;;;5.05;;
16478;SDS011;8350;52.316;10.530;2023-06-19T14:13:16;4.80;;;4.40;;
16478;SDS011;8350;52.316;10.530;2023-06-19T14:15:43;4.68;;;4.28;;
16478;SDS011;8350;52.316;10.530;2023-06-19T14:18:10;4.63;;;4.30;;
16478;SDS011;8350;52.316;10.530;2023-06-19T14:20:37;4.32;;;3.92;;
16478;SDS011;8350;52.316;10.530;2023-06-19T14:23:04;3.72;;;3.42;;
16478;SDS011;8350;52.316;10.530;2023-06-19T14:25:32;4.65;;;4.00;;
16478;SDS011;8350;52.316;10.530;2023-06-19T14:27:59;4.07;;;3.30;;
16478;SDS011;8350;52.316;10.530;2023-06-19T14:30:26;5.63;;;3.40;;
16478;SDS011;8350;52.316;10.530;2023-06-19T14:32:53;4.13;;;3.83;;
16478;SDS011;8350;52.316;10.530;2023-06-19T14:35:20;4.07;;;3.58;;
16478;SDS011;8350;52.316;10.530;2023-06-19T14:37:47;3.38;;;3.08;;
16478;SDS011;8350;52.316;10.530;2023-06-19T14:40:14;5.07;;;3.28;;
16478;SDS011;8350;52.316;10.530;2023-06-19T14:42:42;3.35;;;3.08;;
16478;SDS011;8350;52.316;10.530;2023-06-19T14:45:09;3.20;;;3.00;;
16478;SDS011;8350;52.316;10.530;2023-06-19T14:47:36;4.05;;;2.55;;
16478;SDS011;8350;52.316;10.530;2023-06-19T14:50:03;4.45;;;3.10;;
16478;SDS011;8350;52.316;10.530;2023-06-19T14:52:31;3.53;;;3.22;;